Sapelo Island, Georgia
Current Conditions -  °F | °C
As of 3:15 PM on Thursday 18 Dec 2014 (Local Time) from KBQK Reporting Station
Clear Clear  
Wind Chill: 18°   Ceiling: Unl
Heat Index: 18°   Visibility: 10mi
Dew Point:   Wind: 3mph
Humidity: 30%   Direction: 280°W
Pressure: 30.09"   Gusts: NA
Location:  31.4°N, 81.28°W
Report Text: KBQK 182015Z AUTO 28003KT 10SM CLR 18/00 A3009 RMK AO1
Loading
Personal Weather Stations






























Interactive Weather Map New forecast layout! Learn more

10-Day Weather Forecast

Advertisements
Track Severe Weather on mobile